Time;durP1;ratioP1;P1;durP2;ratioP2;P2;SDS_P1;SDS_P2;PMS_P1;PMS_P2;Temp;Humidity;BMP_temperature;BMP_pressure;BME280_temperature;BME280_humidity;BME280_pressure;Samples;Min_cycle;Max_cycle;Signal;HPM_P1;HPM_P2
2023/01/18 00:01:12;;;;;;;8.07;3.07;;;;;;;-1.56;99.30;98566.09;5074691;28;20448;-68
2023/01/18 00:03:41;;;;;;;12.20;4.07;;;;;;;-1.43;97.19;98567.38;5074533;28;20545;-68
2023/01/18 00:06:09;;;;;;;19.10;4.27;;;;;;;-1.48;96.92;98560.25;5074926;28;20553;-69
2023/01/18 00:08:38;;;;;;;7.00;3.37;;;;;;;-1.54;97.21;98564.78;5074501;28;20935;-69
2023/01/18 00:11:06;;;;;;;15.13;4.23;;;;;;;-1.60;97.48;98565.06;5074800;28;20499;-68
2023/01/18 00:13:33;;;;;;;12.27;3.20;;;;;;;-1.49;97.02;98563.97;5074255;28;20576;-69
2023/01/18 00:16:03;;;;;;;7.03;3.00;;;;;;;-1.49;97.11;98563.97;5074660;28;20443;-69
2023/01/18 00:18:30;;;;;;;10.57;3.73;;;;;;;-1.61;98.09;98551.00;5074586;28;20437;-69
2023/01/18 00:21:01;;;;;;;10.20;3.47;;;;;;;-1.68;98.92;98544.38;5074585;28;20469;-69
2023/01/18 00:23:28;;;;;;;7.53;3.20;;;;;;;-1.66;99.09;98550.22;5074495;28;20458;-69
2023/01/18 00:25:59;;;;;;;10.80;3.53;;;;;;;-1.49;98.63;98540.06;5074541;28;20452;-69
2023/01/18 00:28:25;;;;;;;6.83;3.10;;;;;;;-1.62;98.93;98540.66;5074424;28;20513;-69
2023/01/18 00:30:52;;;;;;;9.50;3.00;;;;;;;-1.58;98.57;98544.38;5074311;28;20583;-69
2023/01/18 00:33:18;;;;;;;7.40;3.07;;;;;;;-1.53;98.05;98534.50;5073958;28;20493;-69
2023/01/18 00:35:55;;;;;;;11.90;4.23;;;;;;;-1.68;97.11;98536.41;5073630;28;20422;-69
2023/01/18 00:38:23;;;;;;;11.07;3.30;;;;;;;-1.80;96.68;98532.22;5074295;28;20425;-69
2023/01/18 00:40:49;;;;;;;13.33;3.27;;;;;;;-1.82;97.29;98536.22;5074089;28;20434;-68
2023/01/18 00:46:00;;;;;;;10.87;3.50;;;;;;;-1.83;97.49;98538.06;5074276;28;20425;-68
2023/01/18 00:48:26;;;;;;;12.13;4.70;;;;;;;-1.85;97.75;98550.81;5073828;28;20455;-68
2023/01/18 00:50:53;;;;;;;8.97;3.60;;;;;;;-1.81;98.63;98545.78;5073645;28;20942;-69
2023/01/18 00:53:20;;;;;;;12.50;3.90;;;;;;;-1.78;97.79;98558.47;5073429;28;20584;-68
2023/01/18 00:55:49;;;;;;;9.50;4.23;;;;;;;-1.84;97.49;98552.41;5073585;28;20922;-68
2023/01/18 00:58:15;;;;;;;13.67;4.03;;;;;;;-1.94;97.21;98549.78;5073840;28;20475;-69
2023/01/18 01:00:42;;;;;;;15.33;4.23;;;;;;;-1.96;97.62;98559.84;5073823;28;20437;-68
2023/01/18 01:03:09;;;;;;;10.37;3.87;;;;;;;-1.88;95.86;98561.19;5073712;28;20548;-68
2023/01/18 01:08:22;;;;;;;8.60;3.53;;;;;;;-1.89;97.26;98567.53;5073551;28;20404;-68
2023/01/18 01:11:03;;;;;;;12.53;4.50;;;;;;;-1.89;97.03;98568.34;5073645;28;20480;-68
2023/01/18 01:27:12;;;;;;;10.97;4.17;;;;;;;-1.80;96.56;98595.91;5073519;28;20497;-68
2023/01/18 01:29:39;;;;;;;9.97;4.63;;;;;;;-1.88;97.00;98588.50;5073361;28;20445;-69
2023/01/18 01:32:06;;;;;;;12.13;4.70;;;;;;;-1.69;96.32;98596.66;5073378;28;20445;-68
2023/01/18 01:34:33;;;;;;;8.57;4.10;;;;;;;-1.75;95.41;98602.28;5074252;28;20495;-68
2023/01/18 01:36:59;;;;;;;12.50;5.87;;;;;;;-1.68;95.28;98618.69;5072915;28;20480;-68
2023/01/18 01:39:26;;;;;;;13.33;5.10;;;;;;;-1.72;95.64;98615.81;5073142;28;20480;-68
2023/01/18 01:41:53;;;;;;;12.87;5.63;;;;;;;-1.87;96.65;98613.94;5072903;28;20459;-68
2023/01/18 01:44:42;;;;;;;11.07;4.90;;;;;;;-1.90;96.13;98611.84;5073123;28;20463;-68
2023/01/18 01:47:13;;;;;;;12.17;6.40;;;;;;;-1.85;95.94;98619.81;5073183;28;20480;-68
2023/01/18 01:49:42;;;;;;;9.53;4.90;;;;;;;-1.82;97.85;98627.19;5073159;28;20433;-68
2023/01/18 01:52:11;;;;;;;21.97;5.43;;;;;;;-1.67;98.08;98630.91;5073100;28;20524;-68
2023/01/18 01:54:42;;;;;;;11.63;5.07;;;;;;;-1.68;96.07;98629.31;5073095;28;20524;-68
2023/01/18 01:57:13;;;;;;;14.30;5.10;;;;;;;-1.77;95.97;98631.72;5073245;28;20532;-68
2023/01/18 01:59:47;;;;;;;11.90;4.67;;;;;;;-1.61;95.75;98624.53;5072883;28;20461;-68
2023/01/18 02:02:14;;;;;;;16.90;5.00;;;;;;;-1.56;94.64;98632.47;5072956;28;20445;-68
2023/01/18 02:04:43;;;;;;;13.40;4.53;;;;;;;-1.69;96.29;98625.06;5072532;28;20464;-68
2023/01/18 02:07:09;;;;;;;10.60;5.10;;;;;;;-1.77;96.04;98626.44;5072640;28;20893;-68
2023/01/18 02:09:36;;;;;;;24.47;5.70;;;;;;;-1.63;95.79;98632.75;5072900;28;20875;-68
2023/01/18 02:12:03;;;;;;;13.60;5.23;;;;;;;-1.68;95.47;98634.59;5072878;28;20448;-68
2023/01/18 02:14:31;;;;;;;15.27;5.23;;;;;;;-1.56;95.67;98643.09;5072724;28;20600;-68
2023/01/18 02:17:12;;;;;;;17.33;5.30;;;;;;;-1.68;97.31;98650.53;5072822;28;20446;-68
2023/01/18 02:20:20;;;;;;;7.93;4.03;;;;;;;-1.50;97.73;98652.63;5072544;28;20422;-68
2023/01/18 02:23:12;;;;;;;12.43;5.37;;;;;;;-1.55;96.15;98661.41;5072783;28;20507;-68
2023/01/18 02:25:56;;;;;;;8.87;4.10;;;;;;;-1.69;96.87;98656.91;5072812;28;20517;-68
2023/01/18 02:28:29;;;;;;;12.23;5.30;;;;;;;-1.64;97.50;98659.56;5072780;28;20428;-68
2023/01/18 02:31:01;;;;;;;11.17;4.57;;;;;;;-1.60;96.51;98655.28;5072732;28;20509;-69
2023/01/18 02:33:33;;;;;;;11.50;4.37;;;;;;;-1.61;96.60;98645.75;5072414;28;20531;-69
2023/01/18 02:36:01;;;;;;;9.77;4.97;;;;;;;-1.57;96.30;98649.47;5072853;28;20513;-69
2023/01/18 02:38:34;;;;;;;12.10;5.53;;;;;;;-1.64;96.81;98643.63;5072662;28;20533;-69
2023/01/18 02:41:11;;;;;;;12.57;5.13;;;;;;;-1.53;97.49;98643.34;5072749;28;20453;-68
2023/01/18 02:46:35;;;;;;;8.13;3.87;;;;;;;-1.49;97.45;98632.97;5072682;28;20414;-69
2023/01/18 02:49:06;;;;;;;14.03;4.60;;;;;;;-1.58;96.95;98630.09;5072633;28;20433;-69
2023/01/18 02:51:33;;;;;;;8.37;3.50;;;;;;;-1.56;98.10;98635.91;5072557;28;20436;-69
2023/01/18 02:54:02;;;;;;;11.40;5.07;;;;;;;-1.43;97.52;98644.38;5072017;28;20982;-69
2023/01/18 02:56:34;;;;;;;15.03;4.87;;;;;;;-1.53;97.45;98648.66;5072319;28;20437;-69
2023/01/18 02:59:09;;;;;;;14.80;5.00;;;;;;;-1.54;97.15;98648.94;5074969;28;20430;-69
2023/01/18 03:01:40;;;;;;;11.43;4.63;;;;;;;-1.55;97.35;98644.66;5076156;28;20809;-68
2023/01/18 03:04:12;;;;;;;11.80;4.17;;;;;;;-1.46;95.92;98648.38;5076034;28;20504;-69
2023/01/18 03:06:44;;;;;;;10.00;4.30;;;;;;;-1.53;96.69;98653.16;5075718;28;20577;-69
2023/01/18 03:09:20;;;;;;;11.20;4.60;;;;;;;-1.48;96.53;98655.00;5075717;28;20520;-69
2023/01/18 03:11:55;;;;;;;10.47;5.10;;;;;;;-1.59;95.84;98657.69;5075949;28;20482;-69
2023/01/18 03:14:37;;;;;;;11.90;4.57;;;;;;;-1.48;95.61;98655.00;5075419;28;20568;-69
2023/01/18 03:17:10;;;;;;;9.73;3.90;;;;;;;-1.43;95.16;98661.09;5075561;28;20425;-69
2023/01/18 03:25:18;;;;;;;12.03;3.73;;;;;;;-1.47;98.60;98643.31;5075737;28;20489;-68
2023/01/18 03:36:10;;;;;;;11.47;4.43;;;;;;;-1.37;96.36;98652.06;5075418;28;20459;-71
2023/01/18 03:38:41;;;;;;;7.90;3.40;;;;;;;-1.43;97.51;98647.03;5075534;28;20426;-70
2023/01/18 03:41:09;;;;;;;9.00;4.03;;;;;;;-1.38;98.45;98652.31;5075223;28;20779;-70
2023/01/18 03:43:39;;;;;;;10.87;3.90;;;;;;;-1.44;96.54;98651.56;5075464;28;20469;-69
2023/01/18 03:46:08;;;;;;;13.63;4.07;;;;;;;-1.31;95.90;98660.81;5075461;28;20806;-69
2023/01/18 03:48:36;;;;;;;15.57;3.47;;;;;;;-1.41;94.83;98664.28;5075528;28;20531;-69
2023/01/18 03:51:14;;;;;;;14.63;3.37;;;;;;;-1.30;96.20;98665.84;5075193;28;20441;-69
2023/01/18 03:53:50;;;;;;;13.30;3.87;;;;;;;-1.31;97.14;98660.81;5075043;28;20489;-69
2023/01/18 03:56:24;;;;;;;9.80;4.00;;;;;;;-1.31;97.60;98656.28;5075170;28;20425;-69
2023/01/18 03:58:54;;;;;;;11.77;4.43;;;;;;;-1.23;97.43;98659.47;5074784;28;20421;-69
2023/01/18 04:01:22;;;;;;;14.30;4.70;;;;;;;-1.14;96.29;98661.28;5075024;28;20520;-69
2023/01/18 04:03:49;;;;;;;12.43;4.80;;;;;;;-1.21;96.58;98659.97;5074873;28;20459;-69
2023/01/18 04:06:16;;;;;;;9.13;4.17;;;;;;;-1.25;97.37;98667.69;5074857;28;20445;-69
2023/01/18 04:08:42;;;;;;;11.10;4.47;;;;;;;-1.23;97.64;98662.13;5074543;28;20473;-69
2023/01/18 04:11:09;;;;;;;12.07;4.83;;;;;;;-1.18;98.50;98664.75;5073980;28;20818;-69
2023/01/18 04:13:35;;;;;;;11.73;4.33;;;;;;;-1.22;98.24;98659.19;5074842;28;20492;-70
2023/01/18 04:16:02;;;;;;;8.87;3.93;;;;;;;-1.15;98.09;98665.00;5075010;28;20477;-70
2023/01/18 04:18:30;;;;;;;9.27;4.10;;;;;;;-1.13;98.45;98670.03;5074742;28;20469;-70
2023/01/18 04:20:56;;;;;;;11.83;4.23;;;;;;;-1.12;98.93;98668.97;5074802;28;20437;-70
2023/01/18 04:23:23;;;;;;;10.10;3.70;;;;;;;-1.18;99.35;98672.72;5074153;28;20951;-70
2023/01/18 04:25:50;;;;;;;8.33;4.40;;;;;;;-1.19;98.75;98668.47;5074555;28;20446;-70
2023/01/18 04:28:23;;;;;;;12.77;4.50;;;;;;;-1.20;99.43;98674.84;5074469;28;20443;-70
2023/01/18 04:30:50;;;;;;;8.20;3.63;;;;;;;-1.28;99.44;98671.69;5074474;28;20482;-70
2023/01/18 04:33:17;;;;;;;14.13;4.93;;;;;;;-1.09;99.21;98674.53;5074070;28;20859;-71
2023/01/18 04:35:45;;;;;;;9.77;3.70;;;;;;;-0.99;97.01;98673.69;5073994;28;20852;-71
2023/01/18 04:38:11;;;;;;;10.73;4.03;;;;;;;-1.11;97.54;98673.22;5074447;28;20532;-71
2023/01/18 04:40:39;;;;;;;7.43;3.37;;;;;;;-1.04;97.56;98657.78;5074302;28;20437;-70
2023/01/18 04:43:05;;;;;;;9.33;3.70;;;;;;;-1.13;99.04;98667.38;5074217;28;20468;-70
2023/01/18 04:45:32;;;;;;;12.63;3.37;;;;;;;-1.10;99.55;98674.81;5074124;28;20472;-70
2023/01/18 04:47:58;;;;;;;7.47;2.80;;;;;;;-0.96;98.68;98673.16;5073832;28;20473;-71
2023/01/18 04:50:25;;;;;;;12.40;4.20;;;;;;;-0.84;98.46;98665.66;5073995;28;20442;-70
2023/01/18 04:52:53;;;;;;;7.10;3.50;;;;;;;-0.79;98.08;98672.81;5073826;28;20576;-70
2023/01/18 04:55:20;;;;;;;10.23;3.73;;;;;;;-0.85;97.43;98672.03;5073820;28;20481;-71
2023/01/18 04:57:46;;;;;;;11.17;3.70;;;;;;;-0.92;97.78;98671.56;5073839;28;20449;-71
2023/01/18 05:00:14;;;;;;;8.20;3.70;;;;;;;-1.03;98.47;98683.28;5073826;28;20429;-70
2023/01/18 05:02:41;;;;;;;10.77;4.47;;;;;;;-1.14;98.95;98676.44;5073661;28;20442;-70
2023/01/18 05:05:08;;;;;;;8.00;3.50;;;;;;;-1.14;98.91;98684.41;5073799;28;20444;-70
2023/01/18 05:07:34;;;;;;;12.83;4.60;;;;;;;-1.17;99.15;98676.97;5073666;28;20437;-70
2023/01/18 05:10:03;;;;;;;8.30;2.90;;;;;;;-1.30;99.46;98681.78;5073666;28;20449;-70
2023/01/18 05:12:30;;;;;;;10.60;3.87;;;;;;;-1.18;99.65;98686.00;5073636;28;20430;-70
2023/01/18 05:14:57;;;;;;;12.60;4.03;;;;;;;-1.10;99.40;98690.75;5073432;28;20591;-70
2023/01/18 05:17:26;;;;;;;9.77;4.90;;;;;;;-1.04;99.19;98692.31;5073228;28;20449;-70
2023/01/18 05:19:53;;;;;;;12.93;5.87;;;;;;;-1.02;98.77;98704.28;5073219;28;20852;-71
2023/01/18 05:22:20;;;;;;;16.67;6.00;;;;;;;-1.06;97.03;98705.09;5073088;28;20809;-70
2023/01/18 05:24:46;;;;;;;15.97;6.67;;;;;;;-1.08;97.48;98700.03;5073308;28;21042;-70
2023/01/18 05:27:15;;;;;;;9.97;4.83;;;;;;;-1.13;96.87;98707.22;5073291;28;20473;-70
2023/01/18 05:29:42;;;;;;;11.20;5.33;;;;;;;-1.17;96.76;98714.16;5073608;28;20449;-70
2023/01/18 05:32:10;;;;;;;12.90;5.97;;;;;;;-1.20;96.83;98712.81;5073283;28;20449;-70
2023/01/18 05:34:36;;;;;;;10.33;5.57;;;;;;;-1.24;98.00;98724.25;5072731;28;20485;-72
2023/01/18 05:37:04;;;;;;;13.03;5.60;;;;;;;-1.25;98.60;98715.47;5073020;28;20441;-72
2023/01/18 05:39:30;;;;;;;17.00;6.23;;;;;;;-1.27;99.48;98720.28;5073070;28;20441;-72
2023/01/18 05:41:57;;;;;;;14.77;5.73;;;;;;;-1.28;100.00;98716.03;5072856;28;20487;-72
2023/01/18 05:44:25;;;;;;;10.03;5.13;;;;;;;-1.21;100.00;98723.72;5072616;28;20489;-72
2023/01/18 05:46:52;;;;;;;13.87;5.17;;;;;;;-1.21;99.29;98731.69;5072805;28;20467;-71
2023/01/18 05:49:18;;;;;;;7.73;3.90;;;;;;;-1.29;99.14;98733.81;5072801;28;20463;-71
2023/01/18 05:51:45;;;;;;;14.80;4.80;;;;;;;-1.26;98.82;98743.13;5072767;28;20449;-71
2023/01/18 05:54:12;;;;;;;10.67;3.80;;;;;;;-1.14;99.08;98742.84;5072923;28;20461;-72
2023/01/18 05:56:38;;;;;;;15.00;5.37;;;;;;;-1.23;99.85;98745.25;5072378;28;20973;-72
2023/01/18 05:59:05;;;;;;;12.60;4.00;;;;;;;-1.14;100.00;98740.19;5072589;28;20938;-72
2023/01/18 06:01:34;;;;;;;13.23;4.60;;;;;;;-1.18;100.00;98734.59;5072902;28;20447;-71
2023/01/18 06:04:00;;;;;;;11.97;4.47;;;;;;;-1.03;99.82;98733.75;5072425;28;20981;-72
2023/01/18 06:06:27;;;;;;;13.57;4.37;;;;;;;-0.87;97.80;98737.16;5072893;28;20476;-72
2023/01/18 06:08:54;;;;;;;10.40;4.87;;;;;;;-0.78;97.05;98720.38;5072764;28;20482;-72
2023/01/18 06:11:20;;;;;;;8.20;3.80;;;;;;;-0.94;98.09;98723.38;5072240;28;20484;-72
2023/01/18 06:13:47;;;;;;;9.27;3.80;;;;;;;-0.80;98.33;98745.63;5072129;28;20458;-72
2023/01/18 06:16:13;;;;;;;10.03;4.17;;;;;;;-0.71;97.72;98744.00;5072407;28;20949;-72
2023/01/18 06:18:41;;;;;;;10.83;4.93;;;;;;;-0.77;97.59;98751.19;5072352;28;20482;-72
2023/01/18 06:21:09;;;;;;;9.07;3.97;;;;;;;-0.82;97.64;98750.44;5072979;28;20853;-72
2023/01/18 06:23:36;;;;;;;16.90;5.90;;;;;;;-0.84;97.92;98758.69;5072971;28;20475;-71
2023/01/18 06:26:02;;;;;;;20.83;7.90;;;;;;;-0.82;98.45;98759.19;5072979;28;20445;-72
2023/01/18 06:28:29;;;;;;;12.37;5.97;;;;;;;-0.72;98.05;98763.66;5072731;28;20441;-72
2023/01/18 06:30:56;;;;;;;14.57;5.10;;;;;;;-0.80;97.15;98757.06;5072776;28;20441;-72
2023/01/18 06:33:23;;;;;;;14.00;6.47;;;;;;;-0.86;97.75;98766.13;5074074;28;20469;-72
2023/01/18 06:35:51;;;;;;;16.60;6.00;;;;;;;-0.95;98.15;98770.41;5076539;28;20485;-71
2023/01/18 06:38:18;;;;;;;14.00;6.20;;;;;;;-1.04;99.07;98769.38;5076262;28;20445;-71
2023/01/18 06:40:44;;;;;;;23.33;6.40;;;;;;;-0.94;99.98;98777.28;5076227;28;20445;-70
2023/01/18 06:43:12;;;;;;;14.50;6.50;;;;;;;-1.00;100.00;98774.94;5076108;28;20497;-70
2023/01/18 06:45:39;;;;;;;12.07;5.30;;;;;;;-0.94;99.93;98785.28;5076401;28;20495;-71
2023/01/18 06:48:06;;;;;;;15.10;7.20;;;;;;;-0.89;99.53;98782.59;5076599;28;20452;-71
2023/01/18 06:50:33;;;;;;;11.73;5.47;;;;;;;-0.85;99.15;98782.84;5076575;28;20804;-70
2023/01/18 06:53:01;;;;;;;13.80;6.00;;;;;;;-0.86;99.47;98784.72;5076201;28;20449;-70
2023/01/18 06:55:27;;;;;;;13.83;5.50;;;;;;;-0.79;99.22;98795.06;5076128;28;20519;-70
2023/01/18 06:57:55;;;;;;;17.30;6.07;;;;;;;-0.81;100.00;98795.31;5075834;28;20528;-69
2023/01/18 07:00:23;;;;;;;14.47;6.03;;;;;;;-0.70;100.00;98800.63;5076124;28;20452;-70
2023/01/18 07:02:51;;;;;;;12.10;6.10;;;;;;;-0.72;100.00;98800.88;5075745;28;20810;-72
2023/01/18 07:05:18;;;;;;;12.17;5.80;;;;;;;-0.75;100.00;98796.13;5076100;28;20441;-70
2023/01/18 07:07:45;;;;;;;10.27;5.57;;;;;;;-0.71;100.00;98799.81;5075649;28;20445;-69
2023/01/18 07:10:13;;;;;;;12.83;4.57;;;;;;;-0.67;100.00;98794.75;5075822;28;20437;-69
2023/01/18 07:12:39;;;;;;;9.37;4.67;;;;;;;-0.58;100.00;98801.91;5075805;28;20442;-70
2023/01/18 07:15:07;;;;;;;11.77;4.87;;;;;;;-0.58;99.93;98803.75;5075814;28;20491;-69
2023/01/18 07:17:33;;;;;;;10.67;3.83;;;;;;;-0.67;100.00;98802.72;5075789;28;20794;-69
2023/01/18 07:20:00;;;;;;;12.80;5.37;;;;;;;-0.55;100.00;98803.22;5075788;28;20491;-69
2023/01/18 07:22:26;;;;;;;12.90;4.07;;;;;;;-0.49;100.00;98804.78;5075724;28;20445;-69
2023/01/18 07:24:53;;;;;;;9.80;4.03;;;;;;;-0.59;100.00;98805.63;5075637;28;20453;-69
2023/01/18 07:27:21;;;;;;;10.73;4.40;;;;;;;-0.56;100.00;98799.78;5075721;28;20437;-69
2023/01/18 07:29:47;;;;;;;16.20;4.90;;;;;;;-0.55;100.00;98800.56;5075675;28;20520;-69
2023/01/18 07:32:14;;;;;;;11.60;5.13;;;;;;;-0.63;98.79;98814.41;5075611;28;20476;-69
2023/01/18 07:34:40;;;;;;;14.00;4.43;;;;;;;-0.62;99.28;98813.34;5090680;22;20498;-67
2023/01/18 07:37:07;;;;;;;8.57;3.63;;;;;;;-0.63;99.12;98819.72;5075337;28;20442;-66
2023/01/18 07:39:34;;;;;;;16.30;3.33;;;;;;;-0.60;99.00;98814.69;5075414;28;20524;-67
2023/01/18 07:42:00;;;;;;;6.97;3.23;;;;;;;-0.59;98.74;98813.59;5074937;28;20485;-70
2023/01/18 07:44:28;;;;;;;8.97;3.73;;;;;;;-0.47;97.96;98813.31;5075098;28;20500;-70
2023/01/18 07:46:55;;;;;;;7.57;3.60;;;;;;;-0.50;97.14;98813.84;5075310;28;20815;-67
2023/01/18 07:49:21;;;;;;;15.27;3.80;;;;;;;-0.37;96.68;98818.56;5075431;28;20481;-70
2023/01/18 07:51:48;;;;;;;8.87;3.83;;;;;;;-0.49;97.63;98819.94;5075236;28;20441;-67
2023/01/18 07:54:16;;;;;;;7.57;3.53;;;;;;;-0.48;98.27;98810.94;5075094;28;20468;-67
2023/01/18 07:56:42;;;;;;;10.43;3.67;;;;;;;-0.49;99.32;98815.41;5074996;28;20563;-66
2023/01/18 07:59:09;;;;;;;13.20;4.70;;;;;;;-0.47;98.52;98823.16;5075190;28;20441;-68
2023/01/18 08:01:37;;;;;;;8.27;3.60;;;;;;;-0.49;98.23;98818.09;5074707;28;20453;-67
2023/01/18 08:04:04;;;;;;;9.60;3.90;;;;;;;-0.48;98.30;98822.34;5074875;28;20446;-66
2023/01/18 08:06:31;;;;;;;8.20;2.80;;;;;;;-0.46;98.81;98819.41;5074859;28;20446;-68
2023/01/18 08:08:58;;;;;;;19.43;4.70;;;;;;;-0.35;99.05;98821.78;5074939;28;20448;-68
2023/01/18 08:11:25;;;;;;;9.83;3.83;;;;;;;-0.27;99.81;98821.22;5074692;28;20522;-67
2023/01/18 08:13:51;;;;;;;7.60;3.60;;;;;;;-0.18;100.00;98817.94;5074752;28;20540;-70
2023/01/18 08:16:18;;;;;;;8.10;3.10;;;;;;;-0.19;99.35;98816.38;5074246;28;20486;-71
2023/01/18 08:18:48;;;;;;;16.63;4.30;;;;;;;-0.10;99.34;98820.03;5074590;28;20548;-67
2023/01/18 08:21:15;;;;;;;8.23;3.70;;;;;;;-0.04;99.32;98816.31;5074335;28;20461;-67
2023/01/18 08:23:43;;;;;;;17.30;4.50;;;;;;;-0.04;98.81;98819.75;5074241;28;20833;-67
2023/01/18 08:26:11;;;;;;;7.47;3.50;;;;;;;-0.03;98.53;98816.00;5074046;28;20485;-67
2023/01/18 08:28:40;;;;;;;13.10;3.10;;;;;;;0.16;99.29;98818.81;5074259;28;20456;-67
2023/01/18 08:31:09;;;;;;;9.10;4.50;;;;;;;0.18;98.92;98822.03;5074402;28;20495;-67
2023/01/18 08:33:37;;;;;;;14.63;3.50;;;;;;;0.16;100.00;98829.47;5074346;28;20472;-67
2023/01/18 08:36:10;;;;;;;10.10;4.10;;;;;;;0.36;100.00;98820.56;5073885;28;20489;-67
2023/01/18 08:38:36;;;;;;;8.67;4.03;;;;;;;0.54;99.57;98836.94;5074264;28;20446;-68
2023/01/18 08:41:04;;;;;;;13.63;4.90;;;;;;;0.68;99.23;98843.22;5074119;28;20437;-68
2023/01/18 08:43:30;;;;;;;11.80;5.70;;;;;;;0.69;98.96;98844.81;5073995;28;20433;-70
2023/01/18 08:45:58;;;;;;;10.67;4.63;;;;;;;0.60;100.00;98852.59;5074047;28;20457;-68
2023/01/18 08:48:24;;;;;;;11.37;4.53;;;;;;;0.53;100.00;98848.66;5074231;28;20445;-70
2023/01/18 08:50:51;;;;;;;11.70;4.47;;;;;;;0.52;100.00;98842.53;5074077;28;20475;-68
2023/01/18 08:53:19;;;;;;;13.17;4.20;;;;;;;0.59;100.00;98851.03;5073933;28;20942;-68
2023/01/18 08:55:45;;;;;;;9.70;3.93;;;;;;;0.84;100.00;98849.22;5073383;28;20491;-67
2023/01/18 08:58:12;;;;;;;9.63;3.27;;;;;;;1.04;100.00;98851.69;5073939;28;20441;-71
2023/01/18 09:00:39;;;;;;;13.77;4.17;;;;;;;1.16;100.00;98852.13;5073768;28;20444;-67
2023/01/18 09:03:05;;;;;;;12.10;5.00;;;;;;;1.36;99.19;98851.09;5073834;28;20437;-67
2023/01/18 09:05:34;;;;;;;9.20;4.20;;;;;;;1.30;99.37;98859.47;5073177;28;20548;-69
2023/01/18 09:08:01;;;;;;;8.73;4.47;;;;;;;1.20;100.00;98855.81;5073432;28;20992;-68
2023/01/18 09:10:29;;;;;;;9.30;3.70;;;;;;;1.21;100.00;98853.94;5073567;28;20444;-69
2023/01/18 09:12:55;;;;;;;10.43;3.90;;;;;;;1.45;99.87;98856.63;5073656;28;20445;-67
2023/01/18 09:15:22;;;;;;;17.57;5.00;;;;;;;1.37;99.53;98862.56;5073448;28;20833;-69
2023/01/18 09:17:49;;;;;;;13.93;5.17;;;;;;;1.36;100.00;98861.78;5073410;28;20490;-67
2023/01/18 09:20:15;;;;;;;10.40;4.63;;;;;;;1.39;99.39;98857.75;5073081;28;20437;-68
2023/01/18 09:22:44;;;;;;;11.57;4.47;;;;;;;1.45;99.72;98862.75;5073461;28;20441;-68
2023/01/18 09:25:11;;;;;;;16.07;4.47;;;;;;;1.48;99.41;98882.75;5072956;28;20568;-67
2023/01/18 09:27:39;;;;;;;9.23;3.80;;;;;;;1.48;99.58;98875.53;5073426;28;20438;-69
2023/01/18 09:30:08;;;;;;;10.53;4.10;;;;;;;1.51;99.33;98879.50;5073051;28;20528;-67
2023/01/18 09:32:34;;;;;;;10.00;4.07;;;;;;;1.59;99.17;98886.88;5072906;28;20477;-69
2023/01/18 09:35:01;;;;;;;11.37;3.57;;;;;;;1.59;99.12;98884.22;5072989;28;20515;-69
2023/01/18 09:37:28;;;;;;;9.37;3.93;;;;;;;1.64;98.89;98884.16;5073079;28;20489;-69
2023/01/18 09:39:54;;;;;;;11.60;4.50;;;;;;;1.63;97.82;98889.78;5073154;28;20433;-67
2023/01/18 09:42:23;;;;;;;8.77;3.63;;;;;;;1.73;97.70;98887.81;5073133;28;20484;-67
2023/01/18 09:44:53;;;;;;;13.30;4.63;;;;;;;1.77;97.05;98886.16;5073041;28;20497;-68
2023/01/18 09:47:23;;;;;;;8.87;4.00;;;;;;;1.81;96.68;98886.34;5073224;28;20441;-68
2023/01/18 09:49:55;;;;;;;8.23;3.70;;;;;;;1.81;96.55;98882.91;5073220;28;20938;-68
2023/01/18 09:52:37;;;;;;;17.10;4.07;;;;;;;1.84;96.17;98880.47;5072928;28;20459;-68
2023/01/18 09:55:14;;;;;;;7.70;3.93;;;;;;;1.95;95.79;98889.16;5073071;28;20468;-71
2023/01/18 09:57:55;;;;;;;15.70;4.77;;;;;;;1.93;95.90;98891.31;5073156;28;20473;-68
2023/01/18 10:00:25;;;;;;;10.10;3.80;;;;;;;2.02;95.88;98897.59;5072824;28;20902;-68
2023/01/18 10:02:54;;;;;;;8.50;3.53;;;;;;;2.02;96.23;98894.94;5073077;28;20426;-68
2023/01/18 10:05:25;;;;;;;9.50;3.77;;;;;;;2.10;95.64;98894.28;5073081;28;20464;-68
2023/01/18 10:08:01;;;;;;;10.97;3.63;;;;;;;2.18;94.70;98891.00;5073836;28;20460;-68
2023/01/18 10:10:31;;;;;;;7.97;3.43;;;;;;;2.20;94.65;98893.34;5077349;28;20421;-69
2023/01/18 10:13:08;;;;;;;9.80;3.83;;;;;;;2.14;95.43;98889.19;5077514;28;20438;-67
2023/01/18 10:15:37;;;;;;;12.50;4.97;;;;;;;2.14;95.16;98894.53;5077102;28;20541;-67
2023/01/18 10:18:04;;;;;;;12.00;3.60;;;;;;;2.10;94.57;98888.94;5076839;28;20445;-67
2023/01/18 10:20:38;;;;;;;9.37;3.60;;;;;;;2.23;94.78;98900.81;5076877;28;21001;-68
2023/01/18 10:23:14;;;;;;;9.00;3.40;;;;;;;2.38;93.65;98903.25;5077323;28;20435;-67
2023/01/18 10:25:46;;;;;;;12.77;4.53;;;;;;;2.38;93.08;98905.94;5076915;28;20966;-68
2023/01/18 10:28:26;;;;;;;11.40;4.23;;;;;;;2.46;92.61;98907.16;5076963;28;20825;-68
2023/01/18 10:31:05;;;;;;;10.47;3.63;;;;;;;2.45;92.90;98908.25;5076870;28;20475;-68
2023/01/18 10:33:37;;;;;;;9.03;3.80;;;;;;;2.49;93.35;98904.72;5076641;28;20453;-67
2023/01/18 10:36:11;;;;;;;8.47;3.40;;;;;;;2.53;93.12;98913.75;5076584;28;20576;-68
2023/01/18 10:38:39;;;;;;;12.57;4.80;;;;;;;2.58;92.88;98909.41;5076756;28;20429;-69
2023/01/18 10:41:16;;;;;;;11.17;4.50;;;;;;;2.57;92.98;98911.28;5076514;28;20437;-68
2023/01/18 10:43:43;;;;;;;11.13;4.70;;;;;;;2.67;92.32;98910.34;5076178;28;20425;-68
2023/01/18 10:46:14;;;;;;;9.83;3.60;;;;;;;2.64;92.02;98914.38;5076405;28;20833;-67
2023/01/18 10:48:45;;;;;;;9.40;3.87;;;;;;;2.66;91.32;98917.56;5076489;28;20428;-68
2023/01/18 10:51:25;;;;;;;10.27;4.27;;;;;;;2.59;91.13;98917.13;5076074;28;20965;-68
2023/01/18 10:53:52;;;;;;;10.13;3.80;;;;;;;2.58;92.08;98909.41;5076381;28;20457;-68
2023/01/18 10:56:23;;;;;;;19.47;5.47;;;;;;;2.55;92.86;98908.09;5076321;28;20484;-68
2023/01/18 10:58:54;;;;;;;10.30;4.83;;;;;;;2.65;92.01;98909.84;5076656;28;20434;-68
2023/01/18 11:01:26;;;;;;;8.87;4.07;;;;;;;2.59;91.09;98917.13;5076063;28;20512;-68
2023/01/18 11:03:54;;;;;;;17.57;5.20;;;;;;;2.59;92.53;98911.78;5076148;28;20848;-68
2023/01/18 11:06:23;;;;;;;12.53;5.00;;;;;;;2.68;92.79;98915.41;5076054;28;20472;-68
2023/01/18 11:08:50;;;;;;;10.40;4.47;;;;;;;2.80;92.05;98916.84;5076139;28;20544;-68
2023/01/18 11:12:32;;;;;;;10.90;4.23;;;;;;;2.82;92.02;98920.00;5076125;28;20441;-67
2023/01/18 11:14:26;;;;;;;12.40;4.50;;;;;;;2.85;92.16;98924.78;5075648;28;20522;-68
2023/01/18 11:17:02;;;;;;;9.73;4.43;;;;;;;2.77;91.39;98924.34;5075888;28;20461;-68
2023/01/18 11:19:30;;;;;;;11.07;5.07;;;;;;;2.78;91.75;98920.56;5075270;28;20575;-68
2023/01/18 11:21:56;;;;;;;13.83;4.53;;;;;;;2.73;92.06;98923.34;5075898;28;20502;-70
2023/01/18 11:24:27;;;;;;;18.63;4.87;;;;;;;2.72;92.65;98920.97;5075623;28;20544;-67
2023/01/18 11:26:58;;;;;;;7.60;3.80;;;;;;;2.56;92.32;98931.06;5075692;28;20528;-67
2023/01/18 11:29:29;;;;;;;11.63;4.70;;;;;;;2.31;92.39;98923.41;5075371;28;20926;-68
2023/01/18 11:31:56;;;;;;;10.70;4.03;;;;;;;2.23;92.35;98927.50;5075714;28;20544;-67
2023/01/18 11:34:30;;;;;;;14.80;4.60;;;;;;;2.23;92.17;98919.50;5075246;28;20536;-67
2023/01/18 11:36:58;;;;;;;12.73;4.73;;;;;;;2.25;92.43;98928.81;5075254;28;20539;-67
2023/01/18 11:39:31;;;;;;;10.67;4.00;;;;;;;2.33;92.05;98931.94;5075504;28;20502;-68
2023/01/18 11:42:21;;;;;;;13.30;5.00;;;;;;;2.24;92.28;98935.22;5075261;28;20429;-67
2023/01/18 11:44:58;;;;;;;9.00;3.70;;;;;;;2.31;91.81;98936.78;5075101;28;20840;-67
2023/01/18 11:47:32;;;;;;;13.23;4.63;;;;;;;2.34;91.76;98933.50;5075386;28;20425;-69
2023/01/18 11:50:06;;;;;;;13.03;4.67;;;;;;;2.35;91.13;98940.47;5075528;28;20508;-66
2023/01/18 11:52:42;;;;;;;11.00;5.07;;;;;;;2.45;91.59;98937.66;5075462;28;20426;-68
2023/01/18 11:55:22;;;;;;;13.73;5.43;;;;;;;2.37;92.35;98931.06;5074833;28;20993;-67
2023/01/18 11:57:49;;;;;;;10.43;4.47;;;;;;;2.45;93.13;98929.63;5075392;28;20467;-67
2023/01/18 12:00:17;;;;;;;11.27;4.43;;;;;;;2.51;93.46;98934.59;5075299;28;20477;-65
2023/01/18 12:02:57;;;;;;;9.03;3.90;;;;;;;2.55;92.78;98934.03;5075042;28;20524;-66
2023/01/18 12:05:43;;;;;;;7.83;4.00;;;;;;;2.68;92.18;98936.78;5074920;28;20493;-67
2023/01/18 12:08:23;;;;;;;10.17;3.80;;;;;;;2.70;91.64;98931.97;5074722;28;20898;-67
2023/01/18 12:10:59;;;;;;;10.50;4.13;;;;;;;2.76;92.06;98935.34;5074848;28;20504;-67
2023/01/18 12:13:40;;;;;;;9.77;4.53;;;;;;;2.69;92.53;98938.38;5074783;28;20416;-68
2023/01/18 12:16:19;;;;;;;10.20;4.10;;;;;;;2.77;91.87;98944.94;5074523;28;20497;-67